sensor_id;sensor_type;location;lat;lon;timestamp;pressure;altitude;pressure_sealevel;temperature;humidity
7182;BME280;3632;42.724;23.298;2023-06-01T00:01:00;95515.84;;;16.87;100.00
7182;BME280;3632;42.724;23.298;2023-06-01T00:03:31;95475.97;;;16.65;100.00
7182;BME280;3632;42.724;23.298;2023-06-01T00:05:58;95475.38;;;16.71;100.00
7182;BME280;3632;42.724;23.298;2023-06-01T00:08:25;95084.13;;;13.73;100.00
7182;BME280;3632;42.724;23.298;2023-06-01T00:10:52;95274.34;;;15.20;100.00
7182;BME280;3632;42.724;23.298;2023-06-01T00:13:19;95498.63;;;16.44;100.00
7182;BME280;3632;42.724;23.298;2023-06-01T00:15:46;95045.72;;;13.28;100.00
7182;BME280;3632;42.724;23.298;2023-06-01T00:18:13;95339.84;;;14.88;100.00
7182;BME280;3632;42.724;23.298;2023-06-01T00:20:42;95512.41;;;16.78;100.00
7182;BME280;3632;42.724;23.298;2023-06-01T00:23:09;95084.72;;;13.85;100.00
7182;BME280;3632;42.724;23.298;2023-06-01T00:25:36;95506.31;;;16.18;100.00
7182;BME280;3632;42.724;23.298;2023-06-01T00:28:03;95512.72;;;16.14;100.00
7182;BME280;3632;42.724;23.298;2023-06-01T00:30:30;95515.56;;;15.93;100.00
7182;BME280;3632;42.724;23.298;2023-06-01T00:32:57;95007.09;;;12.09;100.00
7182;BME280;3632;42.724;23.298;2023-06-01T00:35:24;95235.97;;;13.93;100.00
7182;BME280;3632;42.724;23.298;2023-06-01T00:37:53;95522.69;;;16.17;100.00
7182;BME280;3632;42.724;23.298;2023-06-01T00:40:19;95420.81;;;14.73;100.00
7182;BME280;3632;42.724;23.298;2023-06-01T00:42:46;95518.44;;;15.73;100.00
7182;BME280;3632;42.724;23.298;2023-06-01T00:45:13;95404.41;;;14.93;100.00
7182;BME280;3632;42.724;23.298;2023-06-01T00:47:41;95509.31;;;16.14;100.00
7182;BME280;3632;42.724;23.298;2023-06-01T00:50:10;95459.91;;;15.84;100.00
7182;BME280;3632;42.724;23.298;2023-06-01T00:52:37;95246.16;;;14.39;100.00
7182;BME280;3632;42.724;23.298;2023-06-01T00:55:07;95405.94;;;15.67;100.00
7182;BME280;3632;42.724;23.298;2023-06-01T00:57:34;95482.97;;;16.12;100.00
7182;BME280;3632;42.724;23.298;2023-06-01T01:00:02;95482.66;;;16.15;100.00
7182;BME280;3632;42.724;23.298;2023-06-01T01:02:36;95473.19;;;16.15;100.00
7182;BME280;3632;42.724;23.298;2023-06-01T01:05:05;95351.84;;;15.50;100.00
7182;BME280;3632;42.724;23.298;2023-06-01T01:07:40;95515.97;;;16.60;100.00
7182;BME280;3632;42.724;23.298;2023-06-01T01:10:16;95503.97;;;16.25;100.00
7182;BME280;3632;42.724;23.298;2023-06-01T01:12:50;95409.19;;;15.24;100.00
7182;BME280;3632;42.724;23.298;2023-06-01T01:15:23;95517.09;;;16.04;100.00
7182;BME280;3632;42.724;23.298;2023-06-01T01:17:54;95526.31;;;16.07;100.00
7182;BME280;3632;42.724;23.298;2023-06-01T01:20:28;95525.41;;;15.80;100.00
7182;BME280;3632;42.724;23.298;2023-06-01T01:23:14;95417.31;;;15.01;100.00
7182;BME280;3632;42.724;23.298;2023-06-01T01:26:14;95453.69;;;15.42;100.00
7182;BME280;3632;42.724;23.298;2023-06-01T01:28:47;95287.41;;;14.18;100.00
7182;BME280;3632;42.724;23.298;2023-06-01T01:34:37;95319.13;;;13.52;100.00
7182;BME280;3632;42.724;23.298;2023-06-01T01:37:05;95518.66;;;15.25;100.00
7182;BME280;3632;42.724;23.298;2023-06-01T01:39:32;95264.13;;;13.56;100.00
7182;BME280;3632;42.724;23.298;2023-06-01T01:41:59;95115.00;;;12.78;100.00
7182;BME280;3632;42.724;23.298;2023-06-01T01:44:28;95527.88;;;15.45;100.00
7182;BME280;3632;42.724;23.298;2023-06-01T01:46:58;95522.44;;;15.30;100.00
7182;BME280;3632;42.724;23.298;2023-06-01T01:49:37;95519.50;;;15.16;100.00
7182;BME280;3632;42.724;23.298;2023-06-01T01:52:11;95259.03;;;13.46;100.00
7182;BME280;3632;42.724;23.298;2023-06-01T01:54:42;95523.06;;;15.05;100.00
7182;BME280;3632;42.724;23.298;2023-06-01T01:57:11;95528.28;;;15.23;100.00
7182;BME280;3632;42.724;23.298;2023-06-01T01:59:42;95531.00;;;15.48;100.00
7182;BME280;3632;42.724;23.298;2023-06-01T02:02:09;95470.47;;;15.36;100.00
7182;BME280;3632;42.724;23.298;2023-06-01T02:04:38;95552.03;;;15.25;100.00
7182;BME280;3632;42.724;23.298;2023-06-01T02:07:05;95430.16;;;15.01;100.00
7182;BME280;3632;42.724;23.298;2023-06-01T02:09:32;95502.41;;;15.79;100.00
7182;BME280;3632;42.724;23.298;2023-06-01T02:11:59;95530.19;;;15.93;100.00
7182;BME280;3632;42.724;23.298;2023-06-01T02:14:27;95560.31;;;15.19;100.00
7182;BME280;3632;42.724;23.298;2023-06-01T02:16:56;95110.31;;;12.74;100.00
7182;BME280;3632;42.724;23.298;2023-06-01T02:19:24;94940.97;;;11.87;100.00
7182;BME280;3632;42.724;23.298;2023-06-01T02:21:51;94946.34;;;12.50;100.00
7182;BME280;3632;42.724;23.298;2023-06-01T02:24:18;95555.41;;;15.62;100.00
7182;BME280;3632;42.724;23.298;2023-06-01T02:26:45;95537.84;;;16.20;100.00
7182;BME280;3632;42.724;23.298;2023-06-01T02:29:14;95531.00;;;16.29;100.00
7182;BME280;3632;42.724;23.298;2023-06-01T02:31:41;95541.00;;;16.32;100.00
7182;BME280;3632;42.724;23.298;2023-06-01T02:34:09;95015.22;;;12.51;100.00
7182;BME280;3632;42.724;23.298;2023-06-01T02:36:36;95543.63;;;16.40;100.00
7182;BME280;3632;42.724;23.298;2023-06-01T02:39:03;95254.28;;;14.07;100.00
7182;BME280;3632;42.724;23.298;2023-06-01T02:41:30;95540.50;;;16.11;100.00
7182;BME280;3632;42.724;23.298;2023-06-01T02:43:57;95467.16;;;14.99;100.00
7182;BME280;3632;42.724;23.298;2023-06-01T02:46:24;95525.13;;;16.19;100.00
7182;BME280;3632;42.724;23.298;2023-06-01T02:48:51;95545.53;;;16.38;100.00
7182;BME280;3632;42.724;23.298;2023-06-01T02:51:19;95546.63;;;16.53;100.00
7182;BME280;3632;42.724;23.298;2023-06-01T02:53:46;95541.00;;;16.32;100.00
7182;BME280;3632;42.724;23.298;2023-06-01T02:56:13;94980.94;;;12.44;100.00
7182;BME280;3632;42.724;23.298;2023-06-01T02:58:41;95549.66;;;15.95;100.00
7182;BME280;3632;42.724;23.298;2023-06-01T03:01:08;95132.22;;;12.96;100.00
7182;BME280;3632;42.724;23.298;2023-06-01T03:03:37;95532.16;;;15.81;100.00
7182;BME280;3632;42.724;23.298;2023-06-01T03:06:05;95162.06;;;13.34;100.00
7182;BME280;3632;42.724;23.298;2023-06-01T03:08:40;95491.47;;;14.68;100.00
7182;BME280;3632;42.724;23.298;2023-06-01T03:11:07;95537.22;;;15.46;100.00
7182;BME280;3632;42.724;23.298;2023-06-01T03:13:34;95631.22;;;15.39;100.00
7182;BME280;3632;42.724;23.298;2023-06-01T03:16:01;95540.38;;;15.40;100.00
7182;BME280;3632;42.724;23.298;2023-06-01T03:18:28;95009.22;;;12.23;100.00
7182;BME280;3632;42.724;23.298;2023-06-01T03:20:55;95549.44;;;15.89;100.00
7182;BME280;3632;42.724;23.298;2023-06-01T03:23:22;95549.88;;;16.02;100.00
7182;BME280;3632;42.724;23.298;2023-06-01T03:25:50;95545.91;;;15.90;100.00
7182;BME280;3632;42.724;23.298;2023-06-01T03:28:17;95541.69;;;15.71;100.00
7182;BME280;3632;42.724;23.298;2023-06-01T03:30:44;95097.00;;;12.22;100.00
7182;BME280;3632;42.724;23.298;2023-06-01T03:33:12;95095.69;;;12.09;100.00
7182;BME280;3632;42.724;23.298;2023-06-01T03:35:39;95162.94;;;13.15;100.00
7182;BME280;3632;42.724;23.298;2023-06-01T03:38:06;95074.69;;;12.44;100.00
7182;BME280;3632;42.724;23.298;2023-06-01T03:40:33;95590.44;;;15.63;100.00
7182;BME280;3632;42.724;23.298;2023-06-01T03:43:02;95275.81;;;13.78;100.00
7182;BME280;3632;42.724;23.298;2023-06-01T03:45:29;95300.94;;;14.01;100.00
7182;BME280;3632;42.724;23.298;2023-06-01T03:47:56;95439.34;;;14.94;100.00
7182;BME280;3632;42.724;23.298;2023-06-01T03:50:23;94957.47;;;12.68;100.00
7182;BME280;3632;42.724;23.298;2023-06-01T03:52:50;95316.91;;;15.04;100.00
7182;BME280;3632;42.724;23.298;2023-06-01T03:55:17;95516.00;;;16.42;100.00
7182;BME280;3632;42.724;23.298;2023-06-01T03:57:45;95458.72;;;16.14;100.00
7182;BME280;3632;42.724;23.298;2023-06-01T04:00:14;95102.84;;;13.09;100.00
7182;BME280;3632;42.724;23.298;2023-06-01T04:02:46;94962.56;;;12.68;100.00
7182;BME280;3632;42.724;23.298;2023-06-01T04:05:15;95086.75;;;12.80;100.00
7182;BME280;3632;42.724;23.298;2023-06-01T04:07:44;95199.91;;;13.77;100.00
7182;BME280;3632;42.724;23.298;2023-06-01T04:10:11;95431.81;;;14.93;100.00
7182;BME280;3632;42.724;23.298;2023-06-01T04:12:40;95563.47;;;15.94;100.00
7182;BME280;3632;42.724;23.298;2023-06-01T04:15:09;95078.31;;;12.51;100.00
7182;BME280;3632;42.724;23.298;2023-06-01T04:17:38;95567.84;;;15.84;100.00
7182;BME280;3632;42.724;23.298;2023-06-01T04:20:10;95596.59;;;15.70;100.00
7182;BME280;3632;42.724;23.298;2023-06-01T04:22:38;95591.00;;;15.84;100.00
7182;BME280;3632;42.724;23.298;2023-06-01T04:25:07;95543.63;;;15.69;100.00
7182;BME280;3632;42.724;23.298;2023-06-01T04:27:35;95439.56;;;15.11;100.00
7182;BME280;3632;42.724;23.298;2023-06-01T04:30:04;94995.38;;;12.07;100.00
7182;BME280;3632;42.724;23.298;2023-06-01T04:32:33;95564.94;;;16.15;100.00
7182;BME280;3632;42.724;23.298;2023-06-01T04:35:06;95556.56;;;15.95;100.00
7182;BME280;3632;42.724;23.298;2023-06-01T04:37:34;95573.38;;;15.89;100.00
7182;BME280;3632;42.724;23.298;2023-06-01T04:40:01;95576.09;;;16.06;100.00
7182;BME280;3632;42.724;23.298;2023-06-01T04:42:32;95578.31;;;16.00;100.00
7182;BME280;3632;42.724;23.298;2023-06-01T04:45:00;95559.13;;;16.13;100.00
7182;BME280;3632;42.724;23.298;2023-06-01T04:47:30;95169.13;;;12.74;100.00
7182;BME280;3632;42.724;23.298;2023-06-01T04:49:57;95185.53;;;12.52;100.00
7182;BME280;3632;42.724;23.298;2023-06-01T04:52:26;95525.75;;;15.13;100.00
7182;BME280;3632;42.724;23.298;2023-06-01T04:54:53;95581.91;;;16.43;100.00
7182;BME280;3632;42.724;23.298;2023-06-01T04:57:20;95427.63;;;15.64;100.00
7182;BME280;3632;42.724;23.298;2023-06-01T04:59:48;95618.66;;;16.35;100.00
7182;BME280;3632;42.724;23.298;2023-06-01T05:02:15;95585.72;;;16.39;100.00
7182;BME280;3632;42.724;23.298;2023-06-01T05:04:42;95264.63;;;14.15;100.00
7182;BME280;3632;42.724;23.298;2023-06-01T05:07:09;95586.03;;;16.71;100.00
7182;BME280;3632;42.724;23.298;2023-06-01T05:09:38;95379.22;;;15.42;100.00
7182;BME280;3632;42.724;23.298;2023-06-01T05:12:05;95294.47;;;14.89;100.00
7182;BME280;3632;42.724;23.298;2023-06-01T05:14:33;95525.94;;;16.37;100.00
7182;BME280;3632;42.724;23.298;2023-06-01T05:16:59;95580.53;;;16.66;100.00
7182;BME280;3632;42.724;23.298;2023-06-01T05:19:26;95600.34;;;16.92;100.00
7182;BME280;3632;42.724;23.298;2023-06-01T05:21:54;95606.41;;;17.08;100.00
7182;BME280;3632;42.724;23.298;2023-06-01T05:24:21;95587.81;;;17.22;100.00
7182;BME280;3632;42.724;23.298;2023-06-01T05:26:49;95608.13;;;17.25;100.00
7182;BME280;3632;42.724;23.298;2023-06-01T05:29:16;95548.34;;;17.14;100.00
7182;BME280;3632;42.724;23.298;2023-06-01T05:31:43;95255.78;;;14.37;100.00
7182;BME280;3632;42.724;23.298;2023-06-01T05:34:12;95196.22;;;13.89;100.00
7182;BME280;3632;42.724;23.298;2023-06-01T05:36:39;95580.78;;;16.81;100.00
7182;BME280;3632;42.724;23.298;2023-06-01T05:39:06;95531.38;;;16.77;100.00
7182;BME280;3632;42.724;23.298;2023-06-01T05:41:33;95581.88;;;17.22;100.00
7182;BME280;3632;42.724;23.298;2023-06-01T05:44:01;95581.41;;;17.26;100.00
7182;BME280;3632;42.724;23.298;2023-06-01T05:46:28;95555.84;;;16.81;100.00
7182;BME280;3632;42.724;23.298;2023-06-01T05:48:55;95577.81;;;16.94;100.00
7182;BME280;3632;42.724;23.298;2023-06-01T05:51:22;95122.03;;;14.14;100.00
7182;BME280;3632;42.724;23.298;2023-06-01T05:53:49;95354.53;;;15.84;100.00
7182;BME280;3632;42.724;23.298;2023-06-01T05:56:16;95585.84;;;17.50;100.00
7182;BME280;3632;42.724;23.298;2023-06-01T05:58:43;95231.94;;;15.51;100.00
7182;BME280;3632;42.724;23.298;2023-06-01T06:01:12;95585.25;;;17.90;100.00
7182;BME280;3632;42.724;23.298;2023-06-01T06:03:42;95590.56;;;17.97;100.00
7182;BME280;3632;42.724;23.298;2023-06-01T06:06:10;95676.91;;;18.26;100.00
7182;BME280;3632;42.724;23.298;2023-06-01T06:08:37;95406.69;;;16.72;100.00
7182;BME280;3632;42.724;23.298;2023-06-01T06:11:04;95365.13;;;17.09;100.00
7182;BME280;3632;42.724;23.298;2023-06-01T06:13:31;95292.66;;;16.37;100.00
7182;BME280;3632;42.724;23.298;2023-06-01T06:15:58;95669.19;;;18.51;100.00
7182;BME280;3632;42.724;23.298;2023-06-01T06:18:27;95196.44;;;15.80;99.45
7182;BME280;3632;42.724;23.298;2023-06-01T06:20:54;95560.19;;;18.57;97.34
7182;BME280;3632;42.724;23.298;2023-06-01T06:23:21;95234.63;;;16.43;97.41
7182;BME280;3632;42.724;23.298;2023-06-01T06:25:49;95134.16;;;15.86;98.70
7182;BME280;3632;42.724;23.298;2023-06-01T06:28:15;95592.31;;;18.70;98.78
7182;BME280;3632;42.724;23.298;2023-06-01T06:30:42;95598.91;;;18.73;99.07
7182;BME280;3632;42.724;23.298;2023-06-01T06:33:09;95585.66;;;18.76;97.71
7182;BME280;3632;42.724;23.298;2023-06-01T06:35:37;95428.91;;;17.23;98.22
7182;BME280;3632;42.724;23.298;2023-06-01T06:38:04;95591.50;;;18.62;96.53
7182;BME280;3632;42.724;23.298;2023-06-01T06:40:31;95601.81;;;18.54;98.45
7182;BME280;3632;42.724;23.298;2023-06-01T06:42:58;95643.28;;;18.60;98.75
7182;BME280;3632;42.724;23.298;2023-06-01T06:45:24;95263.81;;;16.26;97.46
7182;BME280;3632;42.724;23.298;2023-06-01T06:47:51;95436.63;;;17.89;97.11
7182;BME280;3632;42.724;23.298;2023-06-01T06:50:18;95230.22;;;16.69;96.81
7182;BME280;3632;42.724;23.298;2023-06-01T06:52:47;95333.91;;;17.20;95.56
7182;BME280;3632;42.724;23.298;2023-06-01T06:55:14;95584.09;;;18.67;98.91
7182;BME280;3632;42.724;23.298;2023-06-01T06:57:41;95380.59;;;17.09;99.88
7182;BME280;3632;42.724;23.298;2023-06-01T07:00:08;95310.28;;;16.58;99.90
7182;BME280;3632;42.724;23.298;2023-06-01T07:02:40;95296.16;;;16.62;97.80
7182;BME280;3632;42.724;23.298;2023-06-01T07:05:07;95221.25;;;16.31;98.36
7182;BME280;3632;42.724;23.298;2023-06-01T07:07:36;95503.69;;;18.13;100.00
7182;BME280;3632;42.724;23.298;2023-06-01T07:10:06;95577.63;;;18.71;100.00
7182;BME280;3632;42.724;23.298;2023-06-01T07:12:33;95554.53;;;18.37;100.00
7182;BME280;3632;42.724;23.298;2023-06-01T07:15:00;95583.03;;;19.16;99.24
7182;BME280;3632;42.724;23.298;2023-06-01T07:17:27;95230.56;;;16.90;99.11
7182;BME280;3632;42.724;23.298;2023-06-01T07:19:54;95261.81;;;17.20;98.77
7182;BME280;3632;42.724;23.298;2023-06-01T07:22:21;95170.06;;;16.78;97.64
7182;BME280;3632;42.724;23.298;2023-06-01T07:24:47;95584.31;;;19.21;96.59
7182;BME280;3632;42.724;23.298;2023-06-01T07:27:16;95581.88;;;19.19;99.27
7182;BME280;3632;42.724;23.298;2023-06-01T07:29:43;95580.28;;;19.10;98.97
7182;BME280;3632;42.724;23.298;2023-06-01T07:32:10;95578.88;;;18.91;100.00
7182;BME280;3632;42.724;23.298;2023-06-01T07:34:38;95512.09;;;18.56;100.00
7182;BME280;3632;42.724;23.298;2023-06-01T07:37:05;95523.22;;;18.48;100.00
7182;BME280;3632;42.724;23.298;2023-06-01T07:39:32;95568.06;;;19.04;99.34
7182;BME280;3632;42.724;23.298;2023-06-01T07:41:59;95473.22;;;18.49;98.91
7182;BME280;3632;42.724;23.298;2023-06-01T07:44:27;95486.47;;;18.62;99.34
7182;BME280;3632;42.724;23.298;2023-06-01T07:46:54;95396.16;;;18.06;98.12
7182;BME280;3632;42.724;23.298;2023-06-01T07:49:21;95181.97;;;16.71;97.81
7182;BME280;3632;42.724;23.298;2023-06-01T07:51:48;95302.25;;;17.44;96.64
7182;BME280;3632;42.724;23.298;2023-06-01T07:54:17;95148.84;;;16.93;94.96
7182;BME280;3632;42.724;23.298;2023-06-01T07:56:44;95139.81;;;17.05;92.96
7182;BME280;3632;42.724;23.298;2023-06-01T07:59:12;95543.19;;;19.89;92.86
7182;BME280;3632;42.724;23.298;2023-06-01T08:01:41;95472.00;;;19.31;92.82
7182;BME280;3632;42.724;23.298;2023-06-01T08:04:08;95539.19;;;20.09;92.70
7182;BME280;3632;42.724;23.298;2023-06-01T08:06:36;95568.31;;;20.34;92.50
7182;BME280;3632;42.724;23.298;2023-06-01T08:09:03;95543.75;;;20.30;93.38
7182;BME280;3632;42.724;23.298;2023-06-01T08:11:31;95543.69;;;20.38;96.53
7182;BME280;3632;42.724;23.298;2023-06-01T08:13:58;95364.72;;;19.12;95.35
7182;BME280;3632;42.724;23.298;2023-06-01T08:16:28;95114.44;;;17.49;96.02
7182;BME280;3632;42.724;23.298;2023-06-01T08:18:56;95122.28;;;18.10;94.33
7182;BME280;3632;42.724;23.298;2023-06-01T08:21:24;95557.97;;;20.94;91.41
7182;BME280;3632;42.724;23.298;2023-06-01T08:23:52;95264.63;;;19.52;89.25
7182;BME280;3632;42.724;23.298;2023-06-01T08:27:10;95108.31;;;18.73;89.06
7182;BME280;3632;42.724;23.298;2023-06-01T08:29:23;95504.97;;;21.11;86.69
7182;BME280;3632;42.724;23.298;2023-06-01T08:31:50;95202.94;;;19.11;85.19
7182;BME280;3632;42.724;23.298;2023-06-01T08:34:23;95055.06;;;18.04;85.77
7182;BME280;3632;42.724;23.298;2023-06-01T08:37:05;95382.59;;;20.65;84.38
7182;BME280;3632;42.724;23.298;2023-06-01T08:39:36;95390.09;;;20.75;81.15
7182;BME280;3632;42.724;23.298;2023-06-01T08:42:08;95000.13;;;18.26;81.86
7182;BME280;3632;42.724;23.298;2023-06-01T08:44:41;94926.88;;;18.12;81.39
7182;BME280;3632;42.724;23.298;2023-06-01T08:47:11;95335.44;;;20.70;82.03
7182;BME280;3632;42.724;23.298;2023-06-01T08:49:44;95301.44;;;20.43;80.26
7182;BME280;3632;42.724;23.298;2023-06-01T08:52:18;95249.09;;;19.75;81.30
7182;BME280;3632;42.724;23.298;2023-06-01T08:54:46;95240.28;;;20.13;82.69
7182;BME280;3632;42.724;23.298;2023-06-01T08:57:13;95502.88;;;21.80;80.05
7182;BME280;3632;42.724;23.298;2023-06-01T08:59:41;95477.53;;;21.82;79.58
7182;BME280;3632;42.724;23.298;2023-06-01T09:02:08;95489.00;;;22.09;78.11
7182;BME280;3632;42.724;23.298;2023-06-01T09:04:36;95071.34;;;19.10;77.19
7182;BME280;3632;42.724;23.298;2023-06-01T09:07:11;95154.84;;;20.42;77.69
7182;BME280;3632;42.724;23.298;2023-06-01T09:09:47;95327.66;;;21.84;79.55
7182;BME280;3632;42.724;23.298;2023-06-01T09:12:24;95351.47;;;22.50;80.91
7182;BME280;3632;42.724;23.298;2023-06-01T09:15:11;95334.03;;;22.71;77.28
7182;BME280;3632;42.724;23.298;2023-06-01T09:17:42;95481.69;;;23.71;76.99
7182;BME280;3632;42.724;23.298;2023-06-01T09:20:12;95467.84;;;23.57;73.53
7182;BME280;3632;42.724;23.298;2023-06-01T09:22:43;95479.22;;;23.50;73.08
7182;BME280;3632;42.724;23.298;2023-06-01T09:25:14;95289.06;;;22.37;72.28
7182;BME280;3632;42.724;23.298;2023-06-01T09:27:48;95510.69;;;23.61;68.08
7182;BME280;3632;42.724;23.298;2023-06-01T09:30:18;95469.91;;;23.75;64.29
7182;BME280;3632;42.724;23.298;2023-06-01T09:32:47;95451.28;;;23.72;65.51
7182;BME280;3632;42.724;23.298;2023-06-01T09:35:16;95467.94;;;24.03;66.35
7182;BME280;3632;42.724;23.298;2023-06-01T09:37:55;95304.53;;;22.92;65.55
7182;BME280;3632;42.724;23.298;2023-06-01T09:40:22;95464.53;;;24.03;68.92
7182;BME280;3632;42.724;23.298;2023-06-01T09:42:49;95440.56;;;24.34;69.05
7182;BME280;3632;42.724;23.298;2023-06-01T09:45:18;95415.91;;;24.43;62.53
7182;BME280;3632;42.724;23.298;2023-06-01T09:47:46;95037.75;;;22.12;62.74
7182;BME280;3632;42.724;23.298;2023-06-01T09:50:34;95440.09;;;24.70;56.63
7182;BME280;3632;42.724;23.298;2023-06-01T09:53:03;95436.94;;;24.28;57.34
7182;BME280;3632;42.724;23.298;2023-06-01T09:55:31;95442.53;;;24.58;60.92
7182;BME280;3632;42.724;23.298;2023-06-01T09:58:17;95317.31;;;23.48;57.63
7182;BME280;3632;42.724;23.298;2023-06-01T10:00:46;95082.63;;;22.73;59.45
7182;BME280;3632;42.724;23.298;2023-06-01T10:03:13;95415.72;;;25.22;57.76
7182;BME280;3632;42.724;23.298;2023-06-01T10:05:41;95414.28;;;25.32;56.59
7182;BME280;3632;42.724;23.298;2023-06-01T10:08:12;95232.78;;;24.23;51.66
7182;BME280;3632;42.724;23.298;2023-06-01T10:10:40;95071.00;;;23.15;50.99
7182;BME280;3632;42.724;23.298;2023-06-01T10:13:11;95413.81;;;25.48;50.01
7182;BME280;3632;42.724;23.298;2023-06-01T10:15:41;95410.13;;;25.18;51.87
7182;BME280;3632;42.724;23.298;2023-06-01T10:18:07;95444.88;;;25.06;53.28
7182;BME280;3632;42.724;23.298;2023-06-01T10:20:36;95220.25;;;23.67;54.56
7182;BME280;3632;42.724;23.298;2023-06-01T10:23:05;95414.47;;;24.73;52.71
7182;BME280;3632;42.724;23.298;2023-06-01T10:25:40;95451.16;;;24.32;53.88
7182;BME280;3632;42.724;23.298;2023-06-01T10:28:10;95351.34;;;23.59;52.94
7182;BME280;3632;42.724;23.298;2023-06-01T10:30:37;95085.69;;;22.16;52.72
7182;BME280;3632;42.724;23.298;2023-06-01T10:33:06;95371.19;;;23.80;53.80
7182;BME280;3632;42.724;23.298;2023-06-01T10:36:01;95416.53;;;24.19;58.71
7182;BME280;3632;42.724;23.298;2023-06-01T10:38:30;95423.69;;;23.97;59.14
7182;BME280;3632;42.724;23.298;2023-06-01T10:41:28;95408.25;;;24.02;61.50
7182;BME280;3632;42.724;23.298;2023-06-01T10:43:56;95425.09;;;24.19;56.71
7182;BME280;3632;42.724;23.298;2023-06-01T10:46:37;95162.63;;;22.30;55.40
7182;BME280;3632;42.724;23.298;2023-06-01T10:49:06;95395.34;;;23.48;52.45
7182;BME280;3632;42.724;23.298;2023-06-01T10:51:33;95108.00;;;21.63;50.08
7182;BME280;3632;42.724;23.298;2023-06-01T10:54:30;95095.44;;;22.08;48.59
7182;BME280;3632;42.724;23.298;2023-06-01T10:57:20;95398.03;;;24.07;47.40
7182;BME280;3632;42.724;23.298;2023-06-01T11:00:13;95422.44;;;23.86;49.29
7182;BME280;3632;42.724;23.298;2023-06-01T11:02:50;95395.84;;;23.23;52.62
7182;BME280;3632;42.724;23.298;2023-06-01T11:05:48;95394.56;;;23.00;54.81
7182;BME280;3632;42.724;23.298;2023-06-01T11:08:50;95380.06;;;23.32;54.30
7182;BME280;3632;42.724;23.298;2023-06-01T11:11:18;95381.13;;;23.44;55.94
7182;BME280;3632;42.724;23.298;2023-06-01T11:14:10;95382.16;;;23.56;54.98
7182;BME280;3632;42.724;23.298;2023-06-01T11:16:37;95380.06;;;23.38;55.12
7182;BME280;3632;42.724;23.298;2023-06-01T11:19:06;95372.28;;;23.38;54.30
7182;BME280;3632;42.724;23.298;2023-06-01T11:21:36;95149.19;;;22.20;53.50
7182;BME280;3632;42.724;23.298;2023-06-01T11:24:07;95140.75;;;21.71;53.23
7182;BME280;3632;42.724;23.298;2023-06-01T11:26:37;95316.13;;;23.90;53.48
7182;BME280;3632;42.724;23.298;2023-06-01T11:29:11;95217.81;;;23.85;52.25
7182;BME280;3632;42.724;23.298;2023-06-01T11:31:40;95358.69;;;24.87;49.26
7182;BME280;3632;42.724;23.298;2023-06-01T11:34:09;95347.69;;;25.23;47.69
7182;BME280;3632;42.724;23.298;2023-06-01T11:36:44;95344.34;;;25.54;46.08
7182;BME280;3632;42.724;23.298;2023-06-01T11:39:17;95351.09;;;25.93;44.23
7182;BME280;3632;42.724;23.298;2023-06-01T11:41:48;95348.88;;;26.21;43.08
7182;BME280;3632;42.724;23.298;2023-06-01T11:44:16;95324.22;;;26.11;39.54
7182;BME280;3632;42.724;23.298;2023-06-01T11:46:53;95337.38;;;26.47;38.73
7182;BME280;3632;42.724;23.298;2023-06-01T11:49:20;95355.66;;;25.98;39.87
7182;BME280;3632;42.724;23.298;2023-06-01T11:51:47;95347.72;;;25.61;40.42
7182;BME280;3632;42.724;23.298;2023-06-01T11:54:16;95161.63;;;23.45;41.69
7182;BME280;3632;42.724;23.298;2023-06-01T11:56:47;95365.94;;;24.72;43.43
7182;BME280;3632;42.724;23.298;2023-06-01T11:59:16;95376.84;;;24.17;45.50
7182;BME280;3632;42.724;23.298;2023-06-01T12:01:45;95110.28;;;21.86;47.11
7182;BME280;3632;42.724;23.298;2023-06-01T12:04:12;95383.44;;;23.19;49.28
7182;BME280;3632;42.724;23.298;2023-06-01T12:06:39;95368.50;;;22.52;51.31
7182;BME280;3632;42.724;23.298;2023-06-01T12:09:06;95261.34;;;21.81;51.96
7182;BME280;3632;42.724;23.298;2023-06-01T12:11:35;95163.94;;;20.53;52.60
7182;BME280;3632;42.724;23.298;2023-06-01T12:14:03;95377.63;;;22.14;53.53
7182;BME280;3632;42.724;23.298;2023-06-01T12:16:57;95352.84;;;22.11;55.10
7182;BME280;3632;42.724;23.298;2023-06-01T12:19:26;95340.66;;;21.63;56.24
7182;BME280;3632;42.724;23.298;2023-06-01T12:21:55;95340.88;;;21.89;56.67
7182;BME280;3632;42.724;23.298;2023-06-01T12:24:28;95458.56;;;21.81;56.31
7182;BME280;3632;42.724;23.298;2023-06-01T12:26:57;95081.34;;;20.07;56.12
7182;BME280;3632;42.724;23.298;2023-06-01T12:29:35;95334.63;;;21.83;57.73
7182;BME280;3632;42.724;23.298;2023-06-01T12:32:05;95327.28;;;21.87;59.24
7182;BME280;3632;42.724;23.298;2023-06-01T12:34:32;95322.22;;;21.79;61.70
7182;BME280;3632;42.724;23.298;2023-06-01T12:37:11;95319.34;;;21.67;63.54
7182;BME280;3632;42.724;23.298;2023-06-01T12:39:38;94991.69;;;19.28;62.64
7182;BME280;3632;42.724;23.298;2023-06-01T12:42:07;95284.53;;;21.13;65.06
7182;BME280;3632;42.724;23.298;2023-06-01T12:44:35;95309.03;;;21.31;64.35
7182;BME280;3632;42.724;23.298;2023-06-01T12:47:03;95316.19;;;21.29;62.31
7182;BME280;3632;42.724;23.298;2023-06-01T12:49:31;95358.16;;;21.39;61.61
7182;BME280;3632;42.724;23.298;2023-06-01T12:51:58;95333.84;;;21.40;64.53
7182;BME280;3632;42.724;23.298;2023-06-01T12:54:27;94926.19;;;19.00;63.72
7182;BME280;3632;42.724;23.298;2023-06-01T12:56:53;95297.72;;;21.60;64.76
7182;BME280;3632;42.724;23.298;2023-06-01T12:59:21;95291.16;;;21.64;68.29
7182;BME280;3632;42.724;23.298;2023-06-01T13:01:48;95267.47;;;21.67;66.98
7182;BME280;3632;42.724;23.298;2023-06-01T13:04:17;95312.47;;;21.81;67.42
7182;BME280;3632;42.724;23.298;2023-06-01T13:06:44;95283.38;;;21.64;69.77
7182;BME280;3632;42.724;23.298;2023-06-01T13:09:11;95204.16;;;21.62;68.38
7182;BME280;3632;42.724;23.298;2023-06-01T13:11:40;94946.03;;;20.28;69.25
7182;BME280;3632;42.724;23.298;2023-06-01T13:14:06;94829.88;;;20.19;67.92
7182;BME280;3632;42.724;23.298;2023-06-01T13:16:34;95295.91;;;23.59;67.40
7182;BME280;3632;42.724;23.298;2023-06-01T13:19:01;95323.75;;;24.18;64.83
7182;BME280;3632;42.724;23.298;2023-06-01T13:21:31;95086.38;;;23.43;61.78